sensor_id;sensor_type;location;lat;lon;timestamp;pressure;altitude;pressure_sealevel;temperature;humidity
23253;BME280;11795;47.054;15.408;2023-05-19T00:00:01;97960;;;12.6;68.1
23253;BME280;11795;47.054;15.408;2023-05-19T00:02:00;97960;;;12.8;67.6
23253;BME280;11795;47.054;15.408;2023-05-19T00:04:02;97950;;;12.6;68.3
23253;BME280;11795;47.054;15.408;2023-05-19T00:06:01;97950;;;12.5;68.7
23253;BME280;11795;47.054;15.408;2023-05-19T00:08:00;97950;;;12.7;68.1
23253;BME280;11795;47.054;15.408;2023-05-19T00:10:01;97950;;;12.6;68.5
23253;BME280;11795;47.054;15.408;2023-05-19T00:12:01;97950;;;12.7;68.4
23253;BME280;11795;47.054;15.408;2023-05-19T00:14:02;97950;;;12.5;69.0
23253;BME280;11795;47.054;15.408;2023-05-19T00:16:00;97950;;;12.5;69.2
23253;BME280;11795;47.054;15.408;2023-05-19T00:18:01;97950;;;12.6;68.8
23253;BME280;11795;47.054;15.408;2023-05-19T00:20:00;97940;;;12.4;69.3
23253;BME280;11795;47.054;15.408;2023-05-19T00:22:00;97940;;;12.6;68.9
23253;BME280;11795;47.054;15.408;2023-05-19T00:24:00;97940;;;12.5;69.2
23253;BME280;11795;47.054;15.408;2023-05-19T00:26:00;97940;;;12.4;69.4
23253;BME280;11795;47.054;15.408;2023-05-19T00:28:02;97940;;;12.6;68.9
23253;BME280;11795;47.054;15.408;2023-05-19T00:30:00;97940;;;12.5;69.4
23253;BME280;11795;47.054;15.408;2023-05-19T00:32:00;97940;;;12.7;68.8
23253;BME280;11795;47.054;15.408;2023-05-19T00:34:00;97940;;;12.5;69.2
23253;BME280;11795;47.054;15.408;2023-05-19T00:36:02;97940;;;12.4;69.6
23253;BME280;11795;47.054;15.408;2023-05-19T00:38:00;97930;;;12.6;69.1
23253;BME280;11795;47.054;15.408;2023-05-19T00:40:00;97930;;;12.5;69.4
23253;BME280;11795;47.054;15.408;2023-05-19T00:42:01;97940;;;12.6;69.1
23253;BME280;11795;47.054;15.408;2023-05-19T00:44:00;97940;;;12.5;69.6
23253;BME280;11795;47.054;15.408;2023-05-19T00:46:01;97940;;;12.4;70.0
23253;BME280;11795;47.054;15.408;2023-05-19T00:48:00;97940;;;12.6;69.6
23253;BME280;11795;47.054;15.408;2023-05-19T00:50:00;97940;;;12.5;70.1
23253;BME280;11795;47.054;15.408;2023-05-19T00:52:00;97940;;;12.7;69.8
23253;BME280;11795;47.054;15.408;2023-05-19T00:54:00;97930;;;12.5;70.3
23253;BME280;11795;47.054;15.408;2023-05-19T00:56:01;97940;;;12.4;70.7
23253;BME280;11795;47.054;15.408;2023-05-19T00:58:00;97930;;;12.5;70.3
23253;BME280;11795;47.054;15.408;2023-05-19T01:00:00;97930;;;12.4;70.8
23253;BME280;11795;47.054;15.408;2023-05-19T01:02:01;97930;;;12.6;70.3
23253;BME280;11795;47.054;15.408;2023-05-19T01:04:01;97930;;;12.5;70.8
23253;BME280;11795;47.054;15.408;2023-05-19T01:06:04;97930;;;12.4;71.1
23253;BME280;11795;47.054;15.408;2023-05-19T01:08:01;97930;;;12.5;70.8
23253;BME280;11795;47.054;15.408;2023-05-19T01:10:00;97930;;;12.4;71.3
23253;BME280;11795;47.054;15.408;2023-05-19T01:12:00;97930;;;12.6;70.8
23253;BME280;11795;47.054;15.408;2023-05-19T01:14:00;97930;;;12.5;71.1
23253;BME280;11795;47.054;15.408;2023-05-19T01:16:03;97930;;;12.4;71.4
23253;BME280;11795;47.054;15.408;2023-05-19T01:18:04;97930;;;12.5;70.9
23253;BME280;11795;47.054;15.408;2023-05-19T01:20:06;97930;;;12.4;71.5
23253;BME280;11795;47.054;15.408;2023-05-19T01:22:08;97930;;;12.6;71.3
23253;BME280;11795;47.054;15.408;2023-05-19T01:24:12;97930;;;12.4;71.8
23253;BME280;11795;47.054;15.408;2023-05-19T01:26:13;97930;;;12.3;72.3
23253;BME280;11795;47.054;15.408;2023-05-19T01:28:15;97940;;;12.5;71.9
23253;BME280;11795;47.054;15.408;2023-05-19T01:32:03;97930;;;12.5;72.0
23253;BME280;11795;47.054;15.408;2023-05-19T01:34:01;97930;;;12.4;72.5
23253;BME280;11795;47.054;15.408;2023-05-19T01:36:02;97930;;;12.3;72.9
23253;BME280;11795;47.054;15.408;2023-05-19T01:38:01;97930;;;12.4;72.5
23253;BME280;11795;47.054;15.408;2023-05-19T01:40:01;97930;;;12.3;73.1
23253;BME280;11795;47.054;15.408;2023-05-19T01:42:01;97930;;;12.5;72.7
23253;BME280;11795;47.054;15.408;2023-05-19T01:44:01;97930;;;12.3;72.9
23253;BME280;11795;47.054;15.408;2023-05-19T01:46:01;97930;;;12.3;73.1
23253;BME280;11795;47.054;15.408;2023-05-19T01:48:02;97930;;;12.4;72.8
23253;BME280;11795;47.054;15.408;2023-05-19T01:50:00;97930;;;12.4;73.2
23253;BME280;11795;47.054;15.408;2023-05-19T01:52:00;97930;;;12.5;73.2
23253;BME280;11795;47.054;15.408;2023-05-19T01:54:00;97930;;;12.3;73.8
23253;BME280;11795;47.054;15.408;2023-05-19T01:56:00;97920;;;12.2;74.4
23253;BME280;11795;47.054;15.408;2023-05-19T01:58:07;97920;;;12.3;74.2
23253;BME280;11795;47.054;15.408;2023-05-19T02:00:10;97930;;;12.1;74.8
23253;BME280;11795;47.054;15.408;2023-05-19T02:02:04;97930;;;12.4;74.4
23253;BME280;11795;47.054;15.408;2023-05-19T02:04:12;97930;;;12.2;74.9
23253;BME280;11795;47.054;15.408;2023-05-19T02:06:09;97930;;;12.1;75.4
23253;BME280;11795;47.054;15.408;2023-05-19T02:08:07;97930;;;12.2;74.9
23253;BME280;11795;47.054;15.408;2023-05-19T02:10:07;97930;;;12.1;75.3
23253;BME280;11795;47.054;15.408;2023-05-19T02:12:07;97920;;;12.3;74.9
23253;BME280;11795;47.054;15.408;2023-05-19T02:14:03;97920;;;12.1;75.1
23253;BME280;11795;47.054;15.408;2023-05-19T02:16:03;97920;;;12.1;75.4
23253;BME280;11795;47.054;15.408;2023-05-19T02:18:04;97920;;;12.2;74.8
23253;BME280;11795;47.054;15.408;2023-05-19T02:20:01;97920;;;12.1;75.3
23253;BME280;11795;47.054;15.408;2023-05-19T02:22:00;97920;;;12.3;75.0
23253;BME280;11795;47.054;15.408;2023-05-19T02:24:00;97910;;;12.1;75.2
23253;BME280;11795;47.054;15.408;2023-05-19T02:26:00;97920;;;12.1;75.3
23253;BME280;11795;47.054;15.408;2023-05-19T02:28:00;97910;;;12.2;74.8
23253;BME280;11795;47.054;15.408;2023-05-19T02:30:00;97920;;;12.1;75.2
23253;BME280;11795;47.054;15.408;2023-05-19T02:32:00;97910;;;12.3;74.6
23253;BME280;11795;47.054;15.408;2023-05-19T02:34:00;97910;;;12.1;74.7
23253;BME280;11795;47.054;15.408;2023-05-19T02:36:00;97910;;;12.0;75.0
23253;BME280;11795;47.054;15.408;2023-05-19T02:38:00;97910;;;12.2;74.3
23253;BME280;11795;47.054;15.408;2023-05-19T02:40:00;97910;;;12.0;74.8
23253;BME280;11795;47.054;15.408;2023-05-19T02:42:00;97910;;;12.3;74.4
23253;BME280;11795;47.054;15.408;2023-05-19T02:44:00;97910;;;12.1;74.6
23253;BME280;11795;47.054;15.408;2023-05-19T02:46:00;97910;;;12.1;74.9
23253;BME280;11795;47.054;15.408;2023-05-19T02:48:00;97910;;;12.3;74.3
23253;BME280;11795;47.054;15.408;2023-05-19T02:50:00;97910;;;12.0;75.3
23253;BME280;11795;47.054;15.408;2023-05-19T02:52:00;97900;;;12.2;75.1
23253;BME280;11795;47.054;15.408;2023-05-19T02:54:00;97910;;;12.1;75.1
23253;BME280;11795;47.054;15.408;2023-05-19T02:56:00;97910;;;12.0;75.0
23253;BME280;11795;47.054;15.408;2023-05-19T02:58:00;97910;;;12.1;74.8
23253;BME280;11795;47.054;15.408;2023-05-19T03:00:00;97910;;;12.0;75.4
23253;BME280;11795;47.054;15.408;2023-05-19T03:02:01;97900;;;12.1;75.2
23253;BME280;11795;47.054;15.408;2023-05-19T03:04:00;97900;;;12.0;75.1
23253;BME280;11795;47.054;15.408;2023-05-19T03:06:00;97910;;;12.0;75.4
23253;BME280;11795;47.054;15.408;2023-05-19T03:08:00;97900;;;12.1;74.8
23253;BME280;11795;47.054;15.408;2023-05-19T03:10:03;97910;;;12.0;75.3
23253;BME280;11795;47.054;15.408;2023-05-19T03:12:03;97910;;;12.1;75.1
23253;BME280;11795;47.054;15.408;2023-05-19T03:14:00;97900;;;12.0;75.2
23253;BME280;11795;47.054;15.408;2023-05-19T03:16:01;97910;;;11.9;75.6
23253;BME280;11795;47.054;15.408;2023-05-19T03:18:00;97900;;;12.1;75.1
23253;BME280;11795;47.054;15.408;2023-05-19T03:20:00;97910;;;12.0;75.6
23253;BME280;11795;47.054;15.408;2023-05-19T03:22:00;97900;;;12.2;75.2
23253;BME280;11795;47.054;15.408;2023-05-19T03:24:00;97900;;;12.1;75.4
23253;BME280;11795;47.054;15.408;2023-05-19T03:26:00;97900;;;12.0;75.7
23253;BME280;11795;47.054;15.408;2023-05-19T03:28:00;97900;;;12.2;75.0
23253;BME280;11795;47.054;15.408;2023-05-19T03:30:00;97900;;;12.1;75.2
23253;BME280;11795;47.054;15.408;2023-05-19T03:32:00;97900;;;12.2;75.1
23253;BME280;11795;47.054;15.408;2023-05-19T03:34:01;97900;;;12.1;75.2
23253;BME280;11795;47.054;15.408;2023-05-19T03:36:00;97900;;;12.0;75.7
23253;BME280;11795;47.054;15.408;2023-05-19T03:38:00;97900;;;12.1;75.3
23253;BME280;11795;47.054;15.408;2023-05-19T03:40:00;97900;;;11.9;75.9
23253;BME280;11795;47.054;15.408;2023-05-19T03:42:00;97900;;;12.1;75.7
23253;BME280;11795;47.054;15.408;2023-05-19T03:44:00;97900;;;12.0;75.7
23253;BME280;11795;47.054;15.408;2023-05-19T03:46:01;97900;;;12.0;75.9
23253;BME280;11795;47.054;15.408;2023-05-19T03:48:00;97910;;;12.1;75.1
23253;BME280;11795;47.054;15.408;2023-05-19T03:50:01;97910;;;12.0;75.7
23253;BME280;11795;47.054;15.408;2023-05-19T03:52:02;97910;;;12.1;75.6
23253;BME280;11795;47.054;15.408;2023-05-19T03:54:00;97910;;;12.1;75.5
23253;BME280;11795;47.054;15.408;2023-05-19T03:56:00;97910;;;12.0;75.7
23253;BME280;11795;47.054;15.408;2023-05-19T03:58:01;97910;;;12.1;75.3
23253;BME280;11795;47.054;15.408;2023-05-19T04:00:00;97910;;;12.0;75.9
23253;BME280;11795;47.054;15.408;2023-05-19T04:02:00;97910;;;12.1;75.5
23253;BME280;11795;47.054;15.408;2023-05-19T04:04:00;97910;;;11.9;75.7
23253;BME280;11795;47.054;15.408;2023-05-19T04:06:00;97910;;;11.8;76.4
23253;BME280;11795;47.054;15.408;2023-05-19T04:08:00;97920;;;12.0;75.2
23253;BME280;11795;47.054;15.408;2023-05-19T04:10:03;97920;;;11.9;75.4
23253;BME280;11795;47.054;15.408;2023-05-19T04:12:01;97920;;;12.1;75.3
23253;BME280;11795;47.054;15.408;2023-05-19T04:14:00;97920;;;12.1;75.0
23253;BME280;11795;47.054;15.408;2023-05-19T04:16:00;97920;;;12.2;74.6
23253;BME280;11795;47.054;15.408;2023-05-19T04:18:00;97920;;;12.4;74.0
23253;BME280;11795;47.054;15.408;2023-05-19T04:20:00;97920;;;12.1;74.8
23253;BME280;11795;47.054;15.408;2023-05-19T04:22:00;97920;;;12.2;75.0
23253;BME280;11795;47.054;15.408;2023-05-19T04:24:00;97930;;;12.1;75.1
23253;BME280;11795;47.054;15.408;2023-05-19T04:26:01;97940;;;12.1;75.1
23253;BME280;11795;47.054;15.408;2023-05-19T04:28:02;97940;;;12.2;74.2
23253;BME280;11795;47.054;15.408;2023-05-19T04:30:02;97950;;;12.1;74.2
23253;BME280;11795;47.054;15.408;2023-05-19T04:32:00;97950;;;12.1;74.6
23253;BME280;11795;47.054;15.408;2023-05-19T04:34:00;97950;;;12.1;74.1
23253;BME280;11795;47.054;15.408;2023-05-19T04:36:05;97950;;;12.0;74.8
23253;BME280;11795;47.054;15.408;2023-05-19T04:38:00;97950;;;12.2;74.4
23253;BME280;11795;47.054;15.408;2023-05-19T04:40:00;97960;;;12.1;74.8
23253;BME280;11795;47.054;15.408;2023-05-19T04:42:02;97960;;;12.1;75.2
23253;BME280;11795;47.054;15.408;2023-05-19T04:44:00;97960;;;12.1;75.3
23253;BME280;11795;47.054;15.408;2023-05-19T04:46:01;97960;;;12.1;75.8
23253;BME280;11795;47.054;15.408;2023-05-19T04:48:00;97970;;;12.2;75.4
23253;BME280;11795;47.054;15.408;2023-05-19T04:50:00;97960;;;12.1;75.7
23253;BME280;11795;47.054;15.408;2023-05-19T04:52:00;97960;;;12.2;75.7
23253;BME280;11795;47.054;15.408;2023-05-19T04:54:00;97970;;;12.2;75.6
23253;BME280;11795;47.054;15.408;2023-05-19T04:56:00;97970;;;12.2;75.2
23253;BME280;11795;47.054;15.408;2023-05-19T04:58:00;97970;;;12.3;74.9
23253;BME280;11795;47.054;15.408;2023-05-19T05:00:00;97970;;;12.2;75.0
23253;BME280;11795;47.054;15.408;2023-05-19T05:02:00;97970;;;12.3;74.8
23253;BME280;11795;47.054;15.408;2023-05-19T05:04:01;97980;;;12.2;74.7
23253;BME280;11795;47.054;15.408;2023-05-19T05:06:00;97980;;;12.2;75.1
23253;BME280;11795;47.054;15.408;2023-05-19T05:08:00;97980;;;12.3;74.9
23253;BME280;11795;47.054;15.408;2023-05-19T05:10:00;97980;;;12.2;75.6
23253;BME280;11795;47.054;15.408;2023-05-19T05:12:01;97980;;;12.2;75.8
23253;BME280;11795;47.054;15.408;2023-05-19T05:14:00;97980;;;12.2;75.5
23253;BME280;11795;47.054;15.408;2023-05-19T05:16:00;97980;;;12.3;75.5
23253;BME280;11795;47.054;15.408;2023-05-19T05:18:01;97980;;;12.4;74.9
23253;BME280;11795;47.054;15.408;2023-05-19T05:20:01;97980;;;12.4;73.5
23253;BME280;11795;47.054;15.408;2023-05-19T05:22:00;97980;;;12.3;73.9
23253;BME280;11795;47.054;15.408;2023-05-19T05:24:00;97980;;;12.3;73.6
23253;BME280;11795;47.054;15.408;2023-05-19T05:26:07;97990;;;12.2;74.4
23253;BME280;11795;47.054;15.408;2023-05-19T05:28:04;97990;;;12.2;75.0
23253;BME280;11795;47.054;15.408;2023-05-19T05:30:00;97990;;;12.1;75.5
23253;BME280;11795;47.054;15.408;2023-05-19T05:32:00;97990;;;12.3;74.8
23253;BME280;11795;47.054;15.408;2023-05-19T05:34:00;97990;;;12.3;74.2
23253;BME280;11795;47.054;15.408;2023-05-19T05:36:00;97990;;;12.4;74.4
23253;BME280;11795;47.054;15.408;2023-05-19T05:38:01;98000;;;12.4;74.4
23253;BME280;11795;47.054;15.408;2023-05-19T05:40:00;98000;;;12.2;76.1
23253;BME280;11795;47.054;15.408;2023-05-19T05:42:00;98000;;;12.2;76.4
23253;BME280;11795;47.054;15.408;2023-05-19T05:44:00;98000;;;12.2;76.4
23253;BME280;11795;47.054;15.408;2023-05-19T05:46:00;98000;;;12.2;76.6
23253;BME280;11795;47.054;15.408;2023-05-19T05:48:00;98000;;;12.3;76.3
23253;BME280;11795;47.054;15.408;2023-05-19T05:50:00;98000;;;12.2;76.9
23253;BME280;11795;47.054;15.408;2023-05-19T05:52:00;98000;;;12.2;77.0
23253;BME280;11795;47.054;15.408;2023-05-19T05:54:01;98000;;;12.4;76.6
23253;BME280;11795;47.054;15.408;2023-05-19T05:56:00;98000;;;12.3;76.7
23253;BME280;11795;47.054;15.408;2023-05-19T05:58:01;98000;;;12.5;76.2
23253;BME280;11795;47.054;15.408;2023-05-19T06:00:00;98000;;;12.4;76.9
23253;BME280;11795;47.054;15.408;2023-05-19T06:02:00;98010;;;12.4;77.1
23253;BME280;11795;47.054;15.408;2023-05-19T06:04:00;98010;;;12.5;76.8
23253;BME280;11795;47.054;15.408;2023-05-19T06:06:00;98010;;;12.4;77.5
23253;BME280;11795;47.054;15.408;2023-05-19T06:08:00;98010;;;12.5;76.5
23253;BME280;11795;47.054;15.408;2023-05-19T06:10:00;98010;;;12.4;77.1
23253;BME280;11795;47.054;15.408;2023-05-19T06:12:00;98010;;;12.4;76.9
23253;BME280;11795;47.054;15.408;2023-05-19T06:14:00;98020;;;12.5;76.2
23253;BME280;11795;47.054;15.408;2023-05-19T06:16:00;98010;;;12.4;76.6
23253;BME280;11795;47.054;15.408;2023-05-19T06:18:00;98010;;;12.6;75.7
23253;BME280;11795;47.054;15.408;2023-05-19T06:20:00;98010;;;12.5;76.1
23253;BME280;11795;47.054;15.408;2023-05-19T06:22:00;98020;;;12.5;76.2
23253;BME280;11795;47.054;15.408;2023-05-19T06:24:00;98020;;;12.6;75.4
23253;BME280;11795;47.054;15.408;2023-05-19T06:26:00;98020;;;12.6;75.7
23253;BME280;11795;47.054;15.408;2023-05-19T06:28:01;98010;;;12.8;74.7
23253;BME280;11795;47.054;15.408;2023-05-19T06:30:00;98020;;;12.7;75.0
23253;BME280;11795;47.054;15.408;2023-05-19T06:32:00;98020;;;12.7;74.6
23253;BME280;11795;47.054;15.408;2023-05-19T06:34:00;98020;;;12.6;73.6
23253;BME280;11795;47.054;15.408;2023-05-19T06:36:00;98020;;;12.5;74.4
23253;BME280;11795;47.054;15.408;2023-05-19T06:38:00;98020;;;12.8;73.7
23253;BME280;11795;47.054;15.408;2023-05-19T06:40:00;98020;;;12.7;74.2
23253;BME280;11795;47.054;15.408;2023-05-19T06:42:00;98020;;;12.7;74.1
23253;BME280;11795;47.054;15.408;2023-05-19T06:44:02;98020;;;12.9;72.9
23253;BME280;11795;47.054;15.408;2023-05-19T06:46:00;98020;;;12.8;72.7
23253;BME280;11795;47.054;15.408;2023-05-19T06:48:00;98020;;;13.1;71.7
23253;BME280;11795;47.054;15.408;2023-05-19T06:50:00;98020;;;13.1;71.3
23253;BME280;11795;47.054;15.408;2023-05-19T06:52:00;98020;;;13.1;71.2
23253;BME280;11795;47.054;15.408;2023-05-19T06:54:00;98020;;;13.2;70.6
23253;BME280;11795;47.054;15.408;2023-05-19T06:56:00;98020;;;13.1;71.0
23253;BME280;11795;47.054;15.408;2023-05-19T06:58:00;98020;;;13.4;68.8
23253;BME280;11795;47.054;15.408;2023-05-19T07:00:00;98010;;;13.2;69.7
23253;BME280;11795;47.054;15.408;2023-05-19T07:02:01;98020;;;13.3;70.3
23253;BME280;11795;47.054;15.408;2023-05-19T07:04:00;98020;;;13.6;68.2
23253;BME280;11795;47.054;15.408;2023-05-19T07:06:00;98020;;;13.5;68.9
23253;BME280;11795;47.054;15.408;2023-05-19T07:08:00;98010;;;13.6;68.5
23253;BME280;11795;47.054;15.408;2023-05-19T07:10:00;98020;;;13.3;69.6
23253;BME280;11795;47.054;15.408;2023-05-19T07:12:00;98020;;;13.3;70.3
23253;BME280;11795;47.054;15.408;2023-05-19T07:14:00;98010;;;13.5;69.7
23253;BME280;11795;47.054;15.408;2023-05-19T07:16:00;98020;;;13.5;69.9
23253;BME280;11795;47.054;15.408;2023-05-19T07:18:00;98020;;;13.8;69.1
23253;BME280;11795;47.054;15.408;2023-05-19T07:20:00;98010;;;13.8;69.5
23253;BME280;11795;47.054;15.408;2023-05-19T07:22:00;98010;;;13.9;69.6
23253;BME280;11795;47.054;15.408;2023-05-19T07:24:00;98010;;;14.1;68.8
23253;BME280;11795;47.054;15.408;2023-05-19T07:26:00;98010;;;14.1;68.6
23253;BME280;11795;47.054;15.408;2023-05-19T07:28:00;98000;;;14.3;67.8
23253;BME280;11795;47.054;15.408;2023-05-19T07:30:00;98010;;;14.2;67.9
23253;BME280;11795;47.054;15.408;2023-05-19T07:32:00;98000;;;14.2;67.3
23253;BME280;11795;47.054;15.408;2023-05-19T07:34:01;98000;;;14.3;67.6
23253;BME280;11795;47.054;15.408;2023-05-19T07:36:00;98000;;;14.2;68.1
23253;BME280;11795;47.054;15.408;2023-05-19T07:38:02;98000;;;14.5;67.7
23253;BME280;11795;47.054;15.408;2023-05-19T07:40:00;98000;;;14.5;68.0
23253;BME280;11795;47.054;15.408;2023-05-19T07:42:00;97990;;;14.6;67.4
23253;BME280;11795;47.054;15.408;2023-05-19T07:44:00;97990;;;15.0;66.6
23253;BME280;11795;47.054;15.408;2023-05-19T07:46:00;97980;;;15.1;65.9
23253;BME280;11795;47.054;15.408;2023-05-19T07:48:00;97980;;;15.5;64.7
23253;BME280;11795;47.054;15.408;2023-05-19T07:50:00;97980;;;15.6;64.5
23253;BME280;11795;47.054;15.408;2023-05-19T07:52:00;97980;;;15.7;64.6
23253;BME280;11795;47.054;15.408;2023-05-19T07:54:01;97980;;;16.0;62.9
23253;BME280;11795;47.054;15.408;2023-05-19T07:56:00;97980;;;16.0;62.5
23253;BME280;11795;47.054;15.408;2023-05-19T07:58:00;97980;;;16.2;61.8
23253;BME280;11795;47.054;15.408;2023-05-19T08:00:00;97980;;;16.1;62.3
23253;BME280;11795;47.054;15.408;2023-05-19T08:02:00;97970;;;16.2;62.4
23253;BME280;11795;47.054;15.408;2023-05-19T08:04:00;97970;;;16.3;61.2
23253;BME280;11795;47.054;15.408;2023-05-19T08:06:00;97970;;;16.2;61.6
23253;BME280;11795;47.054;15.408;2023-05-19T08:08:01;97970;;;16.5;61.1
23253;BME280;11795;47.054;15.408;2023-05-19T08:10:00;97970;;;16.3;60.3
23253;BME280;11795;47.054;15.408;2023-05-19T08:12:00;97970;;;16.2;61.2
23253;BME280;11795;47.054;15.408;2023-05-19T08:14:00;97970;;;16.1;60.3
23253;BME280;11795;47.054;15.408;2023-05-19T08:16:00;97970;;;15.9;60.9
23253;BME280;11795;47.054;15.408;2023-05-19T08:18:01;97970;;;15.9;60.8
23253;BME280;11795;47.054;15.408;2023-05-19T08:20:00;97980;;;15.7;61.8
23253;BME280;11795;47.054;15.408;2023-05-19T08:22:00;97970;;;15.6;62.1
23253;BME280;11795;47.054;15.408;2023-05-19T08:24:00;97970;;;15.8;61.1
23253;BME280;11795;47.054;15.408;2023-05-19T08:26:01;97970;;;15.6;62.2
23253;BME280;11795;47.054;15.408;2023-05-19T08:28:00;97970;;;15.7;62.7
23253;BME280;11795;47.054;15.408;2023-05-19T08:30:00;97970;;;15.6;61.8
23253;BME280;11795;47.054;15.408;2023-05-19T08:32:01;97980;;;15.4;62.3
23253;BME280;11795;47.054;15.408;2023-05-19T08:34:00;97970;;;15.6;62.1
23253;BME280;11795;47.054;15.408;2023-05-19T08:36:00;97970;;;15.4;63.0
23253;BME280;11795;47.054;15.408;2023-05-19T08:38:00;97980;;;15.5;63.0
23253;BME280;11795;47.054;15.408;2023-05-19T08:40:00;97970;;;15.4;63.5
23253;BME280;11795;47.054;15.408;2023-05-19T08:42:00;97970;;;15.4;64.2
23253;BME280;11795;47.054;15.408;2023-05-19T08:44:00;97970;;;15.5;63.1
23253;BME280;11795;47.054;15.408;2023-05-19T08:46:02;97970;;;15.4;63.5
23253;BME280;11795;47.054;15.408;2023-05-19T08:48:01;97980;;;15.6;63.0
23253;BME280;11795;47.054;15.408;2023-05-19T08:50:03;97980;;;15.5;62.7
23253;BME280;11795;47.054;15.408;2023-05-19T08:52:14;97980;;;15.4;63.2
23253;BME280;11795;47.054;15.408;2023-05-19T08:54:09;97970;;;15.6;62.8
23253;BME280;11795;47.054;15.408;2023-05-19T08:56:04;97970;;;15.5;63.1
23253;BME280;11795;47.054;15.408;2023-05-19T08:58:02;97980;;;15.7;63.0
23253;BME280;11795;47.054;15.408;2023-05-19T09:00:01;97970;;;15.7;62.5
23253;BME280;11795;47.054;15.408;2023-05-19T09:02:01;97970;;;15.5;63.2
23253;BME280;11795;47.054;15.408;2023-05-19T09:04:00;97970;;;15.6;63.0
23253;BME280;11795;47.054;15.408;2023-05-19T09:06:00;97970;;;15.5;63.3
23253;BME280;11795;47.054;15.408;2023-05-19T09:08:02;97970;;;15.8;62.5
23253;BME280;11795;47.054;15.408;2023-05-19T09:10:01;97970;;;15.8;61.6
23253;BME280;11795;47.054;15.408;2023-05-19T09:12:00;97970;;;15.6;62.0
23253;BME280;11795;47.054;15.408;2023-05-19T09:14:00;97970;;;15.6;62.6
23253;BME280;11795;47.054;15.408;2023-05-19T09:16:01;97970;;;15.6;62.2
23253;BME280;11795;47.054;15.408;2023-05-19T09:18:05;97970;;;15.9;61.9
23253;BME280;11795;47.054;15.408;2023-05-19T09:20:00;97970;;;15.9;61.9
23253;BME280;11795;47.054;15.408;2023-05-19T09:22:02;97970;;;15.9;62.1
23253;BME280;11795;47.054;15.408;2023-05-19T09:24:03;97970;;;16.1;61.1
23253;BME280;11795;47.054;15.408;2023-05-19T09:26:01;97970;;;16.2;61.0
23253;BME280;11795;47.054;15.408;2023-05-19T09:28:00;97970;;;16.3;60.9
23253;BME280;11795;47.054;15.408;2023-05-19T09:30:06;97970;;;16.3;61.1
23253;BME280;11795;47.054;15.408;2023-05-19T09:32:04;97970;;;16.4;61.5
23253;BME280;11795;47.054;15.408;2023-05-19T09:34:00;97960;;;16.6;59.5
23253;BME280;11795;47.054;15.408;2023-05-19T09:36:01;97960;;;16.5;60.3
23253;BME280;11795;47.054;15.408;2023-05-19T09:38:00;97960;;;16.6;59.0
23253;BME280;11795;47.054;15.408;2023-05-19T09:40:00;97960;;;16.5;59.4
23253;BME280;11795;47.054;15.408;2023-05-19T09:42:03;97960;;;16.6;59.2
23253;BME280;11795;47.054;15.408;2023-05-19T09:44:00;97950;;;16.5;59.9
23253;BME280;11795;47.054;15.408;2023-05-19T09:46:02;97960;;;16.6;59.9
23253;BME280;11795;47.054;15.408;2023-05-19T09:48:02;97950;;;16.9;59.5
23253;BME280;11795;47.054;15.408;2023-05-19T09:50:00;97950;;;17.0;59.6
23253;BME280;11795;47.054;15.408;2023-05-19T09:52:02;97950;;;17.1;59.4
23253;BME280;11795;47.054;15.408;2023-05-19T09:54:00;97950;;;17.3;58.4
23253;BME280;11795;47.054;15.408;2023-05-19T09:56:01;97950;;;17.2;57.2
23253;BME280;11795;47.054;15.408;2023-05-19T09:58:03;97950;;;17.1;57.2
23253;BME280;11795;47.054;15.408;2023-05-19T10:00:01;97950;;;17.1;57.3
23253;BME280;11795;47.054;15.408;2023-05-19T10:02:00;97950;;;16.9;58.0
23253;BME280;11795;47.054;15.408;2023-05-19T10:04:01;97940;;;17.1;58.5
23253;BME280;11795;47.054;15.408;2023-05-19T10:06:01;97940;;;17.1;57.0
23253;BME280;11795;47.054;15.408;2023-05-19T10:08:00;97940;;;17.3;56.7
23253;BME280;11795;47.054;15.408;2023-05-19T10:10:00;97950;;;17.3;56.8
23253;BME280;11795;47.054;15.408;2023-05-19T10:12:01;97950;;;17.2;57.0
23253;BME280;11795;47.054;15.408;2023-05-19T10:14:00;97950;;;17.3;56.2
23253;BME280;11795;47.054;15.408;2023-05-19T10:16:00;97950;;;17.2;56.4
23253;BME280;11795;47.054;15.408;2023-05-19T10:18:01;97950;;;17.3;56.7
23253;BME280;11795;47.054;15.408;2023-05-19T10:20:01;97950;;;17.3;57.1
23253;BME280;11795;47.054;15.408;2023-05-19T10:22:00;97940;;;17.2;56.4
23253;BME280;11795;47.054;15.408;2023-05-19T10:24:00;97950;;;17.3;56.8
23253;BME280;11795;47.054;15.408;2023-05-19T10:26:02;97940;;;17.2;57.5
23253;BME280;11795;47.054;15.408;2023-05-19T10:28:04;97940;;;17.4;57.0
23253;BME280;11795;47.054;15.408;2023-05-19T10:30:06;97950;;;17.4;57.2
23253;BME280;11795;47.054;15.408;2023-05-19T10:32:03;97940;;;17.2;56.7
23253;BME280;11795;47.054;15.408;2023-05-19T10:34:17;97940;;;17.5;57.0
23253;BME280;11795;47.054;15.408;2023-05-19T10:36:12;97930;;;17.4;57.8
23253;BME280;11795;47.054;15.408;2023-05-19T10:38:08;97930;;;17.6;57.0
23253;BME280;11795;47.054;15.408;2023-05-19T10:40:05;97930;;;17.6;56.7
23253;BME280;11795;47.054;15.408;2023-05-19T10:42:03;97940;;;17.7;57.0
23253;BME280;11795;47.054;15.408;2023-05-19T10:44:08;97940;;;17.7;55.3
23253;BME280;11795;47.054;15.408;2023-05-19T10:46:00;97940;;;17.6;55.7
23253;BME280;11795;47.054;15.408;2023-05-19T10:48:00;97940;;;17.8;56.2
23253;BME280;11795;47.054;15.408;2023-05-19T10:50:00;97940;;;17.8;55.1
23253;BME280;11795;47.054;15.408;2023-05-19T10:52:00;97940;;;17.8;55.5
23253;BME280;11795;47.054;15.408;2023-05-19T10:54:02;97940;;;17.9;55.6
23253;BME280;11795;47.054;15.408;2023-05-19T10:56:02;97940;;;17.8;55.9
23253;BME280;11795;47.054;15.408;2023-05-19T10:58:00;97940;;;17.6;55.1
23253;BME280;11795;47.054;15.408;2023-05-19T11:00:03;97940;;;17.7;55.0
23253;BME280;11795;47.054;15.408;2023-05-19T11:02:02;97940;;;17.7;55.6
23253;BME280;11795;47.054;15.408;2023-05-19T11:04:05;97940;;;17.6;56.1
23253;BME280;11795;47.054;15.408;2023-05-19T11:06:18;97940;;;17.5;56.9
23253;BME280;11795;47.054;15.408;2023-05-19T11:08:05;97930;;;17.6;56.3
23253;BME280;11795;47.054;15.408;2023-05-19T11:10:05;97930;;;17.6;56.3
23253;BME280;11795;47.054;15.408;2023-05-19T11:12:02;97930;;;17.7;55.4